This is the latest recevied weather packets stored in our database for station/object WX7FGZ-6. If no packets are shown the sender has not sent any weather packets the latest 10 day(s).
| Time | Temp. | Humidity | Pressure | Rain* | Wind** | Luminosity | Snow |
|---|---|---|---|---|---|---|---|
| 1777499929 | 9.44° C | 26% | 1021 hPa | 0 mm | - | - | - |
| 1777499719 | 9.44° C | 26% | 1021 hPa | 0 mm | - | - | - |
| 1777499419 | 9.44° C | 23% | 1021.1 hPa | 0 mm | - | - | - |
| 1777499119 | 9.44° C | 23% | 1021 hPa | 0 mm | - | - | - |
| 1777498866 | 9.44° C | 27% | 1021.4 hPa | 0 mm | - | - | - |
| 1777498819 | 9.44° C | 23% | 1021.1 hPa | 0 mm | - | - | - |
| 1777498519 | 9.44° C | 27% | 1021.4 hPa | 0 mm | - | - | - |
| 1777498219 | 8.89° C | 25% | 1021.5 hPa | 0 mm | - | - | - |
| 1777497919 | 8.33° C | 26% | 1021.6 hPa | 0 mm | - | - | - |
| 1777497620 | 8.89° C | 25% | 1021.7 hPa | 0 mm | - | - | - |
| 1777497088 | 8.33° C | 25% | 1021.8 hPa | 0 mm | - | - | - |
| 1777496788 | 7.78° C | 26% | 1022 hPa | 0 mm | - | - | - |
| 1777496329 | 7.78° C | 27% | 1022.2 hPa | 0 mm | - | - | - |
| 1777496028 | 7.78° C | 29% | 1022.2 hPa | 0 mm | - | - | - |
| 1777495729 | 8.33° C | 27% | 1022.4 hPa | 0 mm | - | - | - |
| 1777495428 | 8.89° C | 30% | 1022.5 hPa | 0 mm | - | - | - |
| 1777495129 | 8.33° C | 31% | 1022.5 hPa | 0 mm | - | - | - |
| 1777494829 | 7.78° C | 29% | 1022.5 hPa | 0 mm | - | - | - |
| 1777494529 | 7.78° C | 29% | 1022.4 hPa | 0 mm | - | - | - |
| 1777494485 | 7.78° C | 33% | 1022.6 hPa | 0 mm | - | - | - |
| 1777494229 | 7.78° C | 33% | 1022.6 hPa | 0 mm | - | - | - |
| 1777493929 | 7.78° C | 31% | 1022.6 hPa | 0 mm | - | - | - |
| 1777493629 | 7.78° C | 29% | 1022.2 hPa | 0 mm | - | - | - |
| 1777493329 | 7.78° C | 32% | 1022.5 hPa | 0 mm | - | - | - |
| 1777493029 | 7.78° C | 35% | 1022.4 hPa | 0 mm | - | - | - |
* Rain latest hour (hover to see other rain measurements)
** Current wind speed in m/s (hover to see current wind gust speed)